Time;durP1;ratioP1;P1;durP2;ratioP2;P2;SDS_P1;SDS_P2;PMS_P1;PMS_P2;Temp;Humidity;BMP_temperature;BMP_pressure;BME280_temperature;BME280_humidity;BME280_pressure;Samples;Min_cycle;Max_cycle;Signal;HPM_P1;HPM_P2
2023/09/05 00:00:26;;;;;;;1.80;1.70;;;;;16.60;96591.00;;;;5136896;27;20544;-62
2023/09/05 00:02:53;;;;;;;1.00;1.00;;;;;16.50;96591.00;;;;5136526;27;20544;-62
2023/09/05 00:05:21;;;;;;;1.10;1.10;;;;;16.60;96583.00;;;;5136437;27;20201;-62
2023/09/05 00:07:48;;;;;;;1.80;1.17;;;;;16.50;96576.00;;;;5136436;27;20304;-62
2023/09/05 00:10:16;;;;;;;1.00;1.00;;;;;16.50;96588.00;;;;5136512;27;20185;-62
2023/09/05 00:12:46;;;;;;;1.27;1.27;;;;;16.50;96577.00;;;;5136572;27;20186;-62
2023/09/05 00:15:15;;;;;;;4.23;1.43;;;;;16.40;96575.00;;;;5136985;27;20193;-62
2023/09/05 00:17:44;;;;;;;1.33;1.27;;;;;16.40;96583.00;;;;5136619;27;20214;-62
2023/09/05 00:20:15;;;;;;;0.87;0.87;;;;;16.50;96574.00;;;;5136798;27;20238;-62
2023/09/05 00:22:43;;;;;;;1.13;1.03;;;;;16.50;96574.00;;;;5136379;27;20208;-62
2023/09/05 00:25:11;;;;;;;1.37;1.33;;;;;16.40;96574.00;;;;5136264;27;20197;-62
2023/09/05 00:27:40;;;;;;;1.60;1.50;;;;;16.30;96577.00;;;;5136101;27;20232;-62
2023/09/05 00:30:10;;;;;;;0.77;0.77;;;;;16.30;96577.00;;;;5136064;27;20189;-62
2023/09/05 00:32:40;;;;;;;2.47;1.70;;;;;16.10;96570.00;;;;5134754;27;20194;-61
2023/09/05 00:35:08;;;;;;;1.40;1.30;;;;;16.10;96579.00;;;;5136160;27;20189;-61
2023/09/05 00:37:37;;;;;;;1.30;1.30;;;;;16.30;96575.00;;;;5134632;27;20312;-61
2023/09/05 00:40:05;;;;;;;0.97;0.87;;;;;16.20;96575.00;;;;5136201;27;20197;-61
2023/09/05 00:42:33;;;;;;;0.63;0.63;;;;;16.10;96571.00;;;;5135909;27;20215;-61
2023/09/05 00:45:05;;;;;;;4.90;1.00;;;;;16.20;96561.00;;;;5136041;27;20201;-61
2023/09/05 00:47:34;;;;;;;0.90;0.90;;;;;16.30;96568.00;;;;5135940;27;20209;-61
2023/09/05 00:50:05;;;;;;;4.63;1.80;;;;;16.30;96560.00;;;;5135611;27;20560;-61
2023/09/05 00:52:33;;;;;;;0.90;0.90;;;;;16.30;96565.00;;;;5136162;27;20181;-61
2023/09/05 00:55:01;;;;;;;1.13;1.13;;;;;16.20;96560.00;;;;5135977;27;20208;-61
2023/09/05 00:57:29;;;;;;;0.80;0.80;;;;;16.20;96560.00;;;;5134173;27;20637;-61
2023/09/05 00:59:56;;;;;;;1.43;1.33;;;;;16.10;96561.00;;;;5135105;27;20212;-61
2023/09/05 01:02:24;;;;;;;7.77;1.43;;;;;16.10;96555.00;;;;5135729;27;20189;-61
2023/09/05 01:04:53;;;;;;;1.60;1.50;;;;;16.10;96565.00;;;;5135751;27;20209;-61
2023/09/05 01:07:30;;;;;;;0.87;0.87;;;;;16.10;96558.00;;;;5133884;27;20715;-61
2023/09/05 01:10:03;;;;;;;1.37;1.27;;;;;16.10;96560.00;;;;5137001;27;20196;-61
2023/09/05 01:12:31;;;;;;;1.50;1.40;;;;;15.90;96555.00;;;;5136227;27;20177;-61
2023/09/05 01:14:59;;;;;;;1.43;1.33;;;;;15.90;96559.00;;;;5135768;27;20196;-62
2023/09/05 01:17:26;;;;;;;0.90;0.90;;;;;15.70;96562.00;;;;5134921;27;20228;-62
2023/09/05 01:19:57;;;;;;;1.50;1.43;;;;;15.80;96562.00;;;;5133847;27;20197;-62
2023/09/05 01:22:33;;;;;;;1.07;1.07;;;;;15.70;96560.00;;;;5135566;27;20169;-61
2023/09/05 01:25:02;;;;;;;1.20;1.20;;;;;15.60;96560.00;;;;5135471;27;20185;-61
2023/09/05 01:27:30;;;;;;;0.70;0.70;;;;;15.50;96559.00;;;;5134928;27;20213;-61
2023/09/05 01:29:58;;;;;;;1.37;1.27;;;;;15.30;96557.00;;;;5135004;27;20192;-61
2023/09/05 01:32:27;;;;;;;1.00;1.00;;;;;15.40;96555.00;;;;5134752;27;20193;-61
2023/09/05 01:34:54;;;;;;;1.30;1.20;;;;;15.40;96560.00;;;;5134649;27;20185;-61
2023/09/05 01:37:21;;;;;;;1.13;1.03;;;;;15.50;96556.00;;;;5133275;27;20221;-61
2023/09/05 01:39:49;;;;;;;1.00;1.00;;;;;15.50;96556.00;;;;5134758;27;20648;-61
2023/09/05 01:42:18;;;;;;;1.30;1.27;;;;;15.60;96557.00;;;;5134913;27;20243;-61
2023/09/05 01:44:45;;;;;;;1.00;1.00;;;;;15.50;96561.00;;;;5134449;27;20196;-61
2023/09/05 01:47:12;;;;;;;1.23;1.23;;;;;15.50;96552.00;;;;5134551;27;20265;-61
2023/09/05 01:49:40;;;;;;;2.77;1.87;;;;;15.50;96558.00;;;;5134445;27;20699;-61
2023/09/05 01:52:07;;;;;;;1.70;1.33;;;;;15.40;96562.00;;;;5133241;27;20212;-61
2023/09/05 01:54:38;;;;;;;0.60;0.60;;;;;15.40;96553.00;;;;5134919;27;20670;-61
2023/09/05 01:57:06;;;;;;;1.80;1.37;;;;;15.40;96561.00;;;;5134652;27;20237;-61
2023/09/05 01:59:35;;;;;;;1.10;1.10;;;;;15.30;96554.00;;;;5133056;27;20193;-61
2023/09/05 02:02:02;;;;;;;1.23;1.13;;;;;15.30;96551.00;;;;5134311;27;20186;-61
2023/09/05 02:04:30;;;;;;;0.93;0.93;;;;;15.10;96556.00;;;;5134246;27;20197;-61
2023/09/05 02:06:57;;;;;;;1.07;1.07;;;;;15.00;96552.00;;;;5134238;27;20201;-61
2023/09/05 02:09:25;;;;;;;0.90;0.90;;;;;15.00;96552.00;;;;5134145;27;20189;-61
2023/09/05 02:11:52;;;;;;;0.93;0.93;;;;;14.90;96545.00;;;;5133385;27;20193;-61
2023/09/05 02:14:20;;;;;;;0.93;0.93;;;;;14.90;96545.00;;;;5134078;27;20185;-61
2023/09/05 02:16:48;;;;;;;1.00;1.00;;;;;14.90;96553.00;;;;5133988;27;20216;-61
2023/09/05 02:19:16;;;;;;;2.00;1.60;;;;;14.90;96552.00;;;;5133983;27;20190;-61
2023/09/05 02:21:44;;;;;;;0.67;0.67;;;;;14.90;96544.00;;;;5134087;27;20225;-61
2023/09/05 02:24:11;;;;;;;0.80;0.80;;;;;14.90;96544.00;;;;5132738;27;20224;-61
2023/09/05 02:26:39;;;;;;;1.00;1.00;;;;;15.00;96550.00;;;;5134023;27;20227;-61
2023/09/05 02:29:06;;;;;;;1.93;1.50;;;;;14.80;96546.00;;;;5133942;27;20246;-61
2023/09/05 02:31:34;;;;;;;3.83;1.93;;;;;14.90;96546.00;;;;5133937;27;20643;-61
2023/09/05 02:34:03;;;;;;;1.63;1.57;;;;;14.70;96554.00;;;;5133914;27;20230;-61
2023/09/05 02:36:33;;;;;;;0.70;0.70;;;;;14.90;96553.00;;;;5133918;28;20261;-61
2023/09/05 02:39:00;;;;;;;1.57;1.27;;;;;14.90;96553.00;;;;5133762;28;20212;-61
2023/09/05 02:41:27;;;;;;;0.80;0.80;;;;;14.80;96551.00;;;;5132447;28;20189;-61
2023/09/05 02:43:55;;;;;;;0.90;0.90;;;;;14.90;96551.00;;;;5133788;28;20208;-61
2023/09/05 02:46:22;;;;;;;0.87;0.87;;;;;14.90;96550.00;;;;5133605;28;20254;-61
2023/09/05 02:48:50;;;;;;;1.50;1.30;;;;;15.00;96556.00;;;;5133858;28;20193;-61
2023/09/05 02:51:18;;;;;;;1.17;1.07;;;;;14.90;96555.00;;;;5133698;28;20225;-61
2023/09/05 02:53:46;;;;;;;1.73;1.63;;;;;14.80;96556.00;;;;5133884;28;20185;-61
2023/09/05 02:56:16;;;;;;;1.23;1.13;;;;;14.80;96550.00;;;;5133827;28;20291;-61
2023/09/05 02:58:44;;;;;;;1.13;1.13;;;;;14.80;96546.00;;;;5134155;28;20174;-61
2023/09/05 03:01:11;;;;;;;3.87;1.27;;;;;14.70;96546.00;;;;5133094;28;20200;-61
2023/09/05 03:03:39;;;;;;;1.23;1.10;;;;;14.70;96548.00;;;;5133665;28;20193;-61
2023/09/05 03:06:10;;;;;;;0.90;0.90;;;;;14.50;96538.00;;;;5133481;28;20232;-61
2023/09/05 03:08:41;;;;;;;0.60;0.60;;;;;14.50;96536.00;;;;5133607;28;20189;-62
2023/09/05 03:11:09;;;;;;;4.50;1.47;;;;;14.40;96547.00;;;;5133967;28;20553;-62
2023/09/05 03:13:36;;;;;;;1.13;1.13;;;;;14.40;96538.00;;;;5133758;28;20197;-62
2023/09/05 03:16:04;;;;;;;1.20;1.20;;;;;14.40;96534.00;;;;5133374;28;20232;-62
2023/09/05 03:18:32;;;;;;;0.70;0.70;;;;;14.30;96538.00;;;;5133689;28;20574;-62
2023/09/05 03:20:59;;;;;;;0.50;0.50;;;;;14.10;96538.00;;;;5133944;28;20194;-62
2023/09/05 03:23:27;;;;;;;0.80;0.80;;;;;14.10;96526.00;;;;5136297;27;20189;-61
2023/09/05 03:25:56;;;;;;;0.70;0.70;;;;;14.00;96539.00;;;;5137370;27;20193;-61
2023/09/05 03:28:24;;;;;;;3.57;1.30;;;;;14.00;96531.00;;;;5137288;27;20185;-61
2023/09/05 03:30:51;;;;;;;0.77;0.77;;;;;13.90;96527.00;;;;5137762;27;20306;-61
2023/09/05 03:33:19;;;;;;;1.00;1.00;;;;;13.90;96532.00;;;;5137296;27;20193;-61
2023/09/05 03:35:46;;;;;;;1.37;1.07;;;;;13.90;96531.00;;;;5137455;27;20204;-61
2023/09/05 03:38:13;;;;;;;0.60;0.60;;;;;13.80;96533.00;;;;5137331;27;20589;-61
2023/09/05 03:40:41;;;;;;;1.00;1.00;;;;;13.90;96536.00;;;;5137434;27;20185;-61
2023/09/05 03:43:10;;;;;;;0.83;0.83;;;;;13.90;96533.00;;;;5137001;27;20195;-61
2023/09/05 03:45:37;;;;;;;3.27;0.90;;;;;13.60;96532.00;;;;5137150;27;20648;-61
2023/09/05 03:48:05;;;;;;;1.00;1.00;;;;;13.50;96536.00;;;;5136734;27;20608;-61
2023/09/05 03:50:34;;;;;;;1.10;1.03;;;;;13.60;96537.00;;;;5136847;27;20193;-61
2023/09/05 03:53:02;;;;;;;2.33;1.67;;;;;13.60;96537.00;;;;5137259;27;20644;-61
2023/09/05 03:55:30;;;;;;;0.87;0.87;;;;;13.60;96532.00;;;;5136959;27;20185;-61
2023/09/05 03:57:57;;;;;;;0.90;0.90;;;;;13.60;96533.00;;;;5136555;27;20232;-61
2023/09/05 04:00:26;;;;;;;1.00;1.00;;;;;13.60;96536.00;;;;5136714;27;20276;-61
2023/09/05 04:02:53;;;;;;;0.83;0.83;;;;;13.70;96537.00;;;;5137159;27;20197;-61
2023/09/05 04:05:21;;;;;;;1.00;1.00;;;;;13.50;96526.00;;;;5136590;27;20202;-61
2023/09/05 04:07:48;;;;;;;0.97;0.97;;;;;13.60;96536.00;;;;5136529;27;20201;-61
2023/09/05 04:10:16;;;;;;;0.97;0.97;;;;;13.60;96542.00;;;;5135190;27;20652;-61
2023/09/05 04:12:43;;;;;;;1.10;1.10;;;;;13.40;96535.00;;;;5136443;27;20189;-61
2023/09/05 04:15:11;;;;;;;0.80;0.80;;;;;13.40;96542.00;;;;5136637;27;20250;-61
2023/09/05 04:17:40;;;;;;;1.00;1.00;;;;;13.40;96534.00;;;;5136315;27;20217;-61
2023/09/05 04:20:08;;;;;;;1.00;1.00;;;;;13.40;96537.00;;;;5136859;27;20269;-61
2023/09/05 04:22:36;;;;;;;1.20;1.20;;;;;13.40;96533.00;;;;5135336;27;20189;-61
2023/09/05 04:25:03;;;;;;;1.03;1.03;;;;;13.40;96537.00;;;;5136530;27;20200;-61
2023/09/05 04:27:31;;;;;;;1.07;1.00;;;;;13.40;96540.00;;;;5136337;27;20205;-61
2023/09/05 04:29:58;;;;;;;0.93;0.93;;;;;13.50;96545.00;;;;5136320;27;20197;-61
2023/09/05 04:32:28;;;;;;;1.00;1.00;;;;;13.40;96542.00;;;;5136249;27;20193;-61
2023/09/05 04:34:59;;;;;;;1.63;1.53;;;;;13.40;96529.00;;;;5135323;27;20717;-61
2023/09/05 04:37:27;;;;;;;1.10;1.10;;;;;13.40;96539.00;;;;5136344;27;20225;-61
2023/09/05 04:39:55;;;;;;;1.70;1.27;;;;;13.50;96543.00;;;;5136060;27;20251;-61
2023/09/05 04:42:23;;;;;;;1.60;1.50;;;;;13.40;96545.00;;;;5135884;27;20560;-61
2023/09/05 04:44:51;;;;;;;1.50;1.40;;;;;13.50;96538.00;;;;5135863;27;20668;-61
2023/09/05 04:47:23;;;;;;;0.83;0.83;;;;;13.60;96540.00;;;;5135741;27;20295;-61
2023/09/05 04:49:51;;;;;;;1.03;1.03;;;;;13.50;96548.00;;;;5134559;27;20586;-61
2023/09/05 04:52:21;;;;;;;1.00;1.00;;;;;13.30;96552.00;;;;5137017;27;20250;-61
2023/09/05 04:54:49;;;;;;;0.83;0.83;;;;;13.30;96541.00;;;;5135878;27;20174;-61
2023/09/05 04:57:17;;;;;;;1.80;0.90;;;;;13.30;96534.00;;;;5135417;27;20213;-62
2023/09/05 04:59:47;;;;;;;0.70;0.70;;;;;13.30;96537.00;;;;5136144;27;20193;-61
2023/09/05 05:02:15;;;;;;;0.70;0.70;;;;;13.50;96536.00;;;;5135608;27;20204;-61
2023/09/05 05:04:42;;;;;;;1.13;1.13;;;;;13.50;96542.00;;;;5135437;27;20254;-61
2023/09/05 05:07:10;;;;;;;1.50;1.10;;;;;13.60;96540.00;;;;5135325;27;20717;-62
2023/09/05 05:09:40;;;;;;;12.10;10.07;;;;;13.50;96541.00;;;;5135512;27;20204;-61
2023/09/05 05:12:08;;;;;;;4.93;4.17;;;;;13.60;96531.00;;;;5136162;27;20212;-61
2023/09/05 05:14:35;;;;;;;2.57;2.37;;;;;13.80;96537.00;;;;5135462;27;20203;-61
2023/09/05 05:17:03;;;;;;;1.43;1.30;;;;;13.80;96533.00;;;;5135643;27;20237;-61
2023/09/05 05:19:30;;;;;;;0.90;0.90;;;;;13.70;96533.00;;;;5135671;27;20262;-61
2023/09/05 05:21:58;;;;;;;1.43;1.43;;;;;13.60;96538.00;;;;5134064;27;20650;-61
2023/09/05 05:24:26;;;;;;;1.27;1.03;;;;;13.40;96542.00;;;;5135341;27;20583;-62
2023/09/05 05:26:55;;;;;;;1.73;1.50;;;;;13.40;96545.00;;;;5134936;27;20220;-61
2023/09/05 05:29:22;;;;;;;0.70;0.70;;;;;13.40;96540.00;;;;5135138;27;20196;-62
2023/09/05 05:31:49;;;;;;;1.17;1.17;;;;;13.30;96536.00;;;;5133626;27;20193;-61
2023/09/05 05:34:17;;;;;;;1.00;1.00;;;;;13.30;96543.00;;;;5133585;27;20198;-61
2023/09/05 05:36:47;;;;;;;0.90;0.90;;;;;13.40;96542.00;;;;5134749;27;20217;-61
2023/09/05 05:39:15;;;;;;;0.90;0.90;;;;;13.50;96538.00;;;;5134701;27;20208;-61
2023/09/05 05:41:42;;;;;;;0.90;0.90;;;;;13.70;96542.00;;;;5134894;27;20642;-61
2023/09/05 05:44:11;;;;;;;1.23;1.20;;;;;13.70;96540.00;;;;5134615;27;20200;-62
2023/09/05 05:46:39;;;;;;;0.80;0.80;;;;;13.70;96548.00;;;;5135345;27;20236;-61
2023/09/05 05:49:06;;;;;;;0.90;0.90;;;;;13.80;96550.00;;;;5135049;27;20194;-61
2023/09/05 05:51:34;;;;;;;1.10;1.10;;;;;13.90;96552.00;;;;5134810;27;20197;-61
2023/09/05 05:54:01;;;;;;;1.00;1.00;;;;;14.00;96554.00;;;;5134520;27;20197;-61
2023/09/05 05:56:28;;;;;;;1.07;1.07;;;;;13.90;96557.00;;;;5134381;27;20684;-62
2023/09/05 05:58:56;;;;;;;1.27;1.17;;;;;14.10;96560.00;;;;5134329;27;20213;-62
2023/09/05 06:01:25;;;;;;;1.70;1.60;;;;;14.10;96549.00;;;;5134439;27;20201;-61
2023/09/05 06:03:53;;;;;;;1.33;1.33;;;;;14.20;96557.00;;;;5134354;27;20196;-61
2023/09/05 06:06:20;;;;;;;0.90;0.90;;;;;14.20;96552.00;;;;5134209;27;20221;-61
2023/09/05 06:08:47;;;;;;;1.00;1.00;;;;;14.20;96553.00;;;;5125564;27;20234;-63
2023/09/05 06:11:15;;;;;;;0.97;0.97;;;;;14.20;96560.00;;;;5129645;27;20199;-63
2023/09/05 06:13:42;;;;;;;1.03;1.03;;;;;14.30;96556.00;;;;5133344;27;20189;-63
2023/09/05 06:16:10;;;;;;;1.53;1.43;;;;;14.40;96560.00;;;;5131127;27;20213;-62
2023/09/05 06:18:38;;;;;;;1.37;1.27;;;;;14.40;96557.00;;;;5132586;27;20213;-63
2023/09/05 06:21:06;;;;;;;1.13;1.03;;;;;14.50;96557.00;;;;5130881;27;20212;-61
2023/09/05 06:23:35;;;;;;;1.43;1.33;;;;;14.60;96551.00;;;;5129915;27;20205;-60
2023/09/05 06:26:02;;;;;;;2.00;1.70;;;;;14.70;96548.00;;;;5132094;27;20219;-60
2023/09/05 06:28:30;;;;;;;2.07;1.30;;;;;14.80;96551.00;;;;5132034;27;20200;-61
2023/09/05 06:30:58;;;;;;;0.90;0.90;;;;;14.90;96551.00;;;;5131778;27;20663;-61
2023/09/05 06:33:26;;;;;;;0.70;0.70;;;;;14.90;96557.00;;;;5132551;27;20197;-61
2023/09/05 06:35:55;;;;;;;1.57;1.47;;;;;15.00;96553.00;;;;5132201;27;20276;-61
2023/09/05 06:38:23;;;;;;;1.23;1.17;;;;;15.10;96551.00;;;;5132237;28;20258;-61
2023/09/05 06:40:51;;;;;;;1.07;1.07;;;;;15.30;96560.00;;;;5132320;28;20230;-61
2023/09/05 06:43:18;;;;;;;1.20;1.20;;;;;15.00;96567.00;;;;5131228;28;20274;-61
2023/09/05 06:45:45;;;;;;;0.87;0.87;;;;;15.10;96560.00;;;;5131813;28;20197;-61
2023/09/05 06:48:13;;;;;;;0.90;0.90;;;;;15.20;96568.00;;;;5132166;28;20197;-61
2023/09/05 06:50:40;;;;;;;1.03;1.03;;;;;15.20;96564.00;;;;5130812;28;20204;-61
2023/09/05 06:53:09;;;;;;;0.90;0.90;;;;;15.30;96566.00;;;;5131694;28;20673;-62
2023/09/05 06:55:36;;;;;;;1.27;1.20;;;;;15.40;96558.00;;;;5131404;28;20687;-61
2023/09/05 06:58:06;;;;;;;1.00;1.00;;;;;15.50;96557.00;;;;5134626;27;20560;-61
2023/09/05 07:00:34;;;;;;;1.07;1.07;;;;;15.80;96553.00;;;;5135672;27;21005;-61
2023/09/05 07:03:02;;;;;;;1.13;1.13;;;;;15.90;96550.00;;;;5136412;27;20197;-61
2023/09/05 07:05:29;;;;;;;1.23;1.17;;;;;16.10;96558.00;;;;5135440;27;20204;-61
2023/09/05 07:07:57;;;;;;;1.33;1.27;;;;;16.20;96559.00;;;;5136015;27;20702;-61
2023/09/05 07:10:25;;;;;;;4.07;1.50;;;;;16.20;96572.00;;;;5135650;27;20201;-61
2023/09/05 07:12:53;;;;;;;0.80;0.80;;;;;16.20;96575.00;;;;5136105;27;20196;-61
2023/09/05 07:15:20;;;;;;;0.70;0.70;;;;;16.50;96572.00;;;;5135450;27;20197;-61
2023/09/05 07:17:48;;;;;;;1.93;1.77;;;;;16.60;96573.00;;;;5135366;27;20696;-61
2023/09/05 07:20:16;;;;;;;1.53;1.43;;;;;16.80;96564.00;;;;5135475;27;20660;-61
2023/09/05 07:22:43;;;;;;;1.60;1.50;;;;;17.00;96560.00;;;;5134892;27;20205;-61
2023/09/05 07:25:11;;;;;;;1.00;1.00;;;;;17.10;96561.00;;;;5135625;27;20246;-61
2023/09/05 07:27:40;;;;;;;1.33;1.23;;;;;17.00;96563.00;;;;5135572;27;20826;-61
2023/09/05 07:30:09;;;;;;;1.13;1.10;;;;;17.20;96557.00;;;;5135299;27;20205;-61
2023/09/05 07:32:36;;;;;;;0.80;0.80;;;;;17.50;96557.00;;;;5135857;27;20194;-62
2023/09/05 07:35:04;;;;;;;1.80;1.70;;;;;17.40;96552.00;;;;5135489;27;20559;-62
2023/09/05 07:37:31;;;;;;;0.97;0.97;;;;;17.70;96559.00;;;;5135100;27;20209;-61
2023/09/05 07:39:58;;;;;;;0.47;0.47;;;;;17.80;96548.00;;;;5135265;27;20201;-61
2023/09/05 07:42:27;;;;;;;0.90;0.90;;;;;17.90;96552.00;;;;5135310;27;20656;-61
2023/09/05 07:44:56;;;;;;;0.83;0.83;;;;;17.80;96560.00;;;;5135382;27;20189;-62
2023/09/05 07:47:23;;;;;;;0.97;0.97;;;;;17.90;96555.00;;;;5135338;27;20228;-61
2023/09/05 07:49:51;;;;;;;0.97;0.97;;;;;18.10;96557.00;;;;5135320;27;20204;-61
2023/09/05 07:52:19;;;;;;;1.63;1.53;;;;;18.20;96554.00;;;;5134864;27;20229;-61
2023/09/05 07:54:46;;;;;;;0.50;0.50;;;;;18.20;96553.00;;;;5134868;27;20237;-61
2023/09/05 07:57:15;;;;;;;0.63;0.63;;;;;18.30;96560.00;;;;5135767;27;20224;-61
2023/09/05 07:59:42;;;;;;;0.53;0.53;;;;;18.50;96559.00;;;;5135251;27;20216;-62
2023/09/05 08:02:11;;;;;;;1.93;0.97;;;;;18.60;96559.00;;;;5135032;27;20193;-62
2023/09/05 08:04:39;;;;;;;1.43;1.37;;;;;18.90;96563.00;;;;5134723;27;20248;-62
2023/09/05 08:07:07;;;;;;;0.73;0.73;;;;;19.00;96562.00;;;;5134969;27;20221;-62
2023/09/05 08:09:35;;;;;;;0.60;0.60;;;;;19.10;96562.00;;;;5133373;27;20655;-62
2023/09/05 08:12:02;;;;;;;0.80;0.80;;;;;19.10;96561.00;;;;5135102;27;20190;-62
2023/09/05 08:14:30;;;;;;;0.80;0.80;;;;;19.10;96560.00;;;;5134845;27;20200;-62
2023/09/05 08:16:57;;;;;;;0.60;0.60;;;;;19.50;96560.00;;;;5134735;27;20209;-62
2023/09/05 08:19:26;;;;;;;1.00;1.00;;;;;19.80;96558.00;;;;5134415;27;20208;-62
2023/09/05 08:21:53;;;;;;;0.90;0.80;;;;;19.90;96562.00;;;;5134590;27;20687;-62
2023/09/05 08:24:21;;;;;;;0.90;0.90;;;;;20.10;96561.00;;;;5134926;27;20196;-61
2023/09/05 08:26:48;;;;;;;0.50;0.50;;;;;20.30;96564.00;;;;5134395;27;20213;-61
2023/09/05 08:29:15;;;;;;;0.57;0.57;;;;;20.40;96562.00;;;;5134911;27;20194;-61
2023/09/05 08:31:44;;;;;;;0.60;0.60;;;;;20.60;96559.00;;;;5133947;27;20208;-61
2023/09/05 08:34:11;;;;;;;0.70;0.70;;;;;20.70;96555.00;;;;5134810;27;20220;-61
2023/09/05 08:36:40;;;;;;;0.60;0.60;;;;;20.60;96555.00;;;;5133860;27;20221;-61
2023/09/05 08:39:08;;;;;;;1.07;1.00;;;;;20.80;96551.00;;;;5133066;27;20621;-62
2023/09/05 08:41:35;;;;;;;1.03;1.03;;;;;20.70;96551.00;;;;5133913;27;20193;-61
2023/09/05 08:44:04;;;;;;;1.03;0.93;;;;;20.90;96552.00;;;;5134038;27;20197;-61
2023/09/05 08:46:32;;;;;;;0.60;0.60;;;;;20.90;96557.00;;;;5133845;27;20262;-61
2023/09/05 08:48:59;;;;;;;0.40;0.40;;;;;21.00;96547.00;;;;5134900;27;20668;-61
2023/09/05 08:51:33;;;;;;;0.90;0.90;;;;;21.20;96548.00;;;;5133811;27;20194;-61
2023/09/05 08:54:04;;;;;;;1.00;0.93;;;;;21.20;96545.00;;;;5131782;27;20266;-61
2023/09/05 08:56:32;;;;;;;0.60;0.60;;;;;21.30;96539.00;;;;5133840;27;20240;-61
2023/09/05 08:59:02;;;;;;;0.68;0.68;;;;;21.30;96548.00;;;;5134153;27;20571;-61
2023/09/05 09:01:32;;;;;;;2.20;1.10;;;;;21.50;96541.00;;;;5133260;27;20196;-61
2023/09/05 09:04:01;;;;;;;0.70;0.70;;;;;21.60;96543.00;;;;5133484;27;20852;-61
2023/09/05 09:06:29;;;;;;;1.08;1.00;;;;;21.70;96549.00;;;;5133323;27;20223;-61
2023/09/05 09:08:57;;;;;;;2.65;1.15;;;;;21.70;96544.00;;;;5133663;27;20197;-63
2023/09/05 09:11:25;;;;;;;0.63;0.63;;;;;21.90;96544.00;;;;5132277;27;20200;-62
2023/09/05 09:14:00;;;;;;;0.93;0.93;;;;;21.90;96542.00;;;;5134170;27;20530;-62
2023/09/05 09:16:28;;;;;;;0.68;0.68;;;;;22.00;96544.00;;;;5133635;27;20216;-62
2023/09/05 09:19:03;;;;;;;0.60;0.60;;;;;22.10;96553.00;;;;5133945;27;20308;-62
2023/09/05 09:21:31;;;;;;;0.60;0.60;;;;;22.10;96549.00;;;;5133350;27;20185;-62
2023/09/05 09:24:00;;;;;;;0.80;0.80;;;;;22.00;96542.00;;;;5131794;27;20204;-63
2023/09/05 09:26:29;;;;;;;0.75;0.75;;;;;22.10;96543.00;;;;5133639;27;20209;-62
2023/09/05 09:28:56;;;;;;;0.80;0.80;;;;;22.40;96534.00;;;;5133710;27;20267;-62
2023/09/05 09:31:27;;;;;;;0.73;0.73;;;;;22.60;96536.00;;;;5131925;27;20196;-63
2023/09/05 09:33:57;;;;;;;0.85;0.85;;;;;22.70;96527.00;;;;5133383;27;20181;-63
2023/09/05 09:36:32;;;;;;;0.52;0.52;;;;;22.70;96533.00;;;;5132900;27;20266;-61
2023/09/05 09:39:06;;;;;;;0.80;0.80;;;;;22.70;96532.00;;;;5132981;27;20204;-61
2023/09/05 09:41:41;;;;;;;0.93;0.93;;;;;22.90;96526.00;;;;5132710;27;20189;-61
2023/09/05 09:44:08;;;;;;;0.73;0.73;;;;;23.10;96537.00;;;;5132209;27;20664;-61
2023/09/05 09:46:36;;;;;;;0.80;0.80;;;;;23.00;96532.00;;;;5133052;27;20220;-62
2023/09/05 09:49:08;;;;;;;0.68;0.68;;;;;23.20;96522.00;;;;5131064;27;20189;-62
2023/09/05 09:51:39;;;;;;;0.88;0.88;;;;;23.20;96520.00;;;;5132452;27;20623;-61
2023/09/05 09:54:10;;;;;;;1.08;1.08;;;;;23.30;96524.00;;;;5131906;27;20230;-62
2023/09/05 09:56:42;;;;;;;0.77;0.77;;;;;23.30;96507.00;;;;5132273;27;20228;-62
2023/09/05 09:59:11;;;;;;;1.30;1.20;;;;;23.40;96505.00;;;;5132968;27;20753;-61
2023/09/05 10:01:39;;;;;;;0.70;0.70;;;;;23.60;96510.00;;;;5132410;27;20204;-61
2023/09/05 10:04:07;;;;;;;0.65;0.65;;;;;23.70;96501.00;;;;5132992;27;20194;-61
2023/09/05 10:06:35;;;;;;;0.50;0.50;;;;;23.70;96503.00;;;;5132814;27;20213;-62
2023/09/05 10:09:04;;;;;;;0.88;0.88;;;;;23.90;96507.00;;;;5132574;27;20194;-62
2023/09/05 10:11:33;;;;;;;0.95;0.95;;;;;23.90;96501.00;;;;5131984;27;20280;-62
2023/09/05 10:14:03;;;;;;;4.45;1.02;;;;;24.00;96494.00;;;;5126562;27;20301;-62
2023/09/05 10:16:32;;;;;;;0.70;0.70;;;;;24.30;96498.00;;;;5131776;27;20571;-62
2023/09/05 10:19:02;;;;;;;0.60;0.60;;;;;24.60;96491.00;;;;5132628;27;20277;-62
2023/09/05 10:21:30;;;;;;;0.60;0.60;;;;;24.70;96479.00;;;;5131938;27;20193;-62
2023/09/05 10:23:58;;;;;;;0.90;0.90;;;;;24.70;96489.00;;;;5131624;27;20199;-64
2023/09/05 10:26:26;;;;;;;0.68;0.68;;;;;24.80;96480.00;;;;5131895;27;20294;-61
2023/09/05 10:28:56;;;;;;;0.70;0.70;;;;;25.00;96486.00;;;;5132270;27;20193;-61
2023/09/05 10:31:26;;;;;;;0.70;0.70;;;;;25.10;96485.00;;;;5131959;27;20205;-62
2023/09/05 10:33:53;;;;;;;0.95;0.95;;;;;25.10;96480.00;;;;5131979;28;20205;-62
2023/09/05 10:36:40;;;;;;;1.25;1.23;;;;;25.30;96485.00;;;;5132455;27;20216;-60
2023/09/05 10:39:24;;;;;;;0.50;0.50;;;;;25.30;96491.00;;;;5132402;28;20613;-62
2023/09/05 10:41:52;;;;;;;1.10;1.00;;;;;25.30;96479.00;;;;5127651;28;20277;-62
2023/09/05 10:44:19;;;;;;;0.40;0.40;;;;;25.10;96491.00;;;;5132199;28;20711;-62
2023/09/05 10:46:53;;;;;;;1.05;0.55;;;;;25.40;96493.00;;;;5132367;28;20217;-62
2023/09/05 10:49:22;;;;;;;0.68;0.68;;;;;25.30;96494.00;;;;5132255;28;20190;-61
2023/09/05 10:52:17;;;;;;;0.90;0.90;;;;;25.60;96487.00;;;;5132052;28;20197;-61
2023/09/05 10:54:45;;;;;;;0.60;0.60;;;;;25.60;96489.00;;;;5130434;28;20548;-61
2023/09/05 10:57:37;;;;;;;1.45;1.35;;;;;26.10;96484.00;;;;5132022;28;20562;-61
2023/09/05 11:00:21;;;;;;;0.77;0.77;;;;;26.30;96486.00;;;;5132013;27;20280;-61
2023/09/05 11:02:51;;;;;;;0.70;0.70;;;;;26.30;96485.00;;;;5131012;27;20212;-61
2023/09/05 11:05:20;;;;;;;0.55;0.55;;;;;26.00;96476.00;;;;5130446;28;20637;-61
2023/09/05 11:07:50;;;;;;;1.85;0.80;;;;;26.10;96486.00;;;;5131407;28;20838;-61
2023/09/05 11:10:26;;;;;;;0.50;0.50;;;;;26.60;96485.00;;;;5132130;28;20181;-61
2023/09/05 11:12:56;;;;;;;2.47;1.20;;;;;26.50;96477.00;;;;5127174;28;20196;-61
2023/09/05 11:15:31;;;;;;;1.13;1.05;;;;;26.80;96477.00;;;;5132131;28;20759;-61
2023/09/05 11:18:04;;;;;;;0.68;0.68;;;;;27.00;96479.00;;;;5131861;28;20220;-61
2023/09/05 11:20:39;;;;;;;0.80;0.80;;;;;27.30;96472.00;;;;5130953;28;20213;-61
2023/09/05 11:23:14;;;;;;;0.80;0.80;;;;;27.50;96485.00;;;;5130305;28;20193;-61
2023/09/05 11:25:46;;;;;;;1.65;1.05;;;;;27.60;96456.00;;;;5132121;28;20204;-61
2023/09/05 11:28:14;;;;;;;1.00;1.00;;;;;27.70;96470.00;;;;5131469;28;20204;-61
2023/09/05 11:30:43;;;;;;;0.60;0.60;;;;;27.60;96486.00;;;;5132227;28;20592;-61
2023/09/05 11:33:14;;;;;;;0.90;0.90;;;;;27.50;96489.00;;;;5131519;28;20189;-61
2023/09/05 11:35:42;;;;;;;0.60;0.60;;;;;27.50;96479.00;;;;5132060;28;20273;-61
2023/09/05 11:38:10;;;;;;;0.82;0.82;;;;;27.60;96476.00;;;;5131764;28;20284;-61
2023/09/05 11:40:38;;;;;;;0.75;0.75;;;;;27.80;96477.00;;;;5131971;28;20229;-61
2023/09/05 11:43:08;;;;;;;0.47;0.47;;;;;28.00;96476.00;;;;5130988;27;20220;-61
2023/09/05 11:45:37;;;;;;;0.60;0.60;;;;;28.00;96469.00;;;;5135638;27;20246;-61
2023/09/05 11:48:06;;;;;;;0.60;0.60;;;;;28.10;96468.00;;;;5134764;27;20305;-61
2023/09/05 11:50:35;;;;;;;1.65;1.02;;;;;28.00;96474.00;;;;5135756;27;20786;-61
2023/09/05 11:53:10;;;;;;;0.70;0.70;;;;;28.20;96465.00;;;;5134539;27;20193;-62
2023/09/05 11:55:38;;;;;;;3.00;1.08;;;;;27.80;96472.00;;;;5135287;27;20196;-62
2023/09/05 11:58:06;;;;;;;1.15;1.13;;;;;28.00;96460.00;;;;5135475;27;20579;-62
2023/09/05 12:00:34;;;;;;;2.20;1.40;;;;;28.30;96462.00;;;;5135231;27;20726;-62
2023/09/05 12:03:02;;;;;;;0.57;0.57;;;;;28.20;96459.00;;;;5134969;27;20683;-62
2023/09/05 12:05:34;;;;;;;0.77;0.77;;;;;28.30;96456.00;;;;5135104;27;20208;-62
2023/09/05 12:08:06;;;;;;;0.68;0.68;;;;;28.60;96450.00;;;;5127159;27;20256;-62
2023/09/05 12:10:40;;;;;;;0.85;0.85;;;;;28.90;96454.00;;;;5135182;27;20193;-62
2023/09/05 12:13:08;;;;;;;3.17;0.88;;;;;29.00;96452.00;;;;5135106;27;20188;-62
2023/09/05 12:15:37;;;;;;;0.52;0.52;;;;;28.90;96445.00;;;;5135184;27;20197;-62
2023/09/05 12:18:07;;;;;;;0.50;0.50;;;;;28.90;96448.00;;;;5135221;27;20619;-62
2023/09/05 12:20:36;;;;;;;0.50;0.50;;;;;28.90;96443.00;;;;5134537;27;20220;-62
2023/09/05 12:23:05;;;;;;;0.80;0.80;;;;;29.20;96444.00;;;;5135409;27;20197;-62
2023/09/05 12:25:33;;;;;;;0.70;0.70;;;;;29.20;96436.00;;;;5134321;27;20721;-62